Time,TemperatureF,DewpointF,PressureIn,WindDirection,WindDirectionDegrees,WindSpeedMPH,WindSpeedGustMPH,Humidity,HourlyPrecipIn,Conditions,Clouds,dailyrainin,SoftwareType,DateUTC
2013-01-28 05:26:00,23.7,21.5,29.92,SSE,150,0.0,0.0,91,0.00,,,0.00,Wunderground v.1.15,2013-01-28 13:26:00,
2013-01-28 05:31:00,23.3,20.8,29.92,SSE,149,0.0,0.0,90,0.00,,,0.00,Wunderground v.1.15,2013-01-28 13:31:00,
2013-01-28 05:36:00,23.0,20.5,29.92,SSE,150,0.0,0.0,90,0.00,,,0.00,Wunderground v.1.15,2013-01-28 13:36:00,
2013-01-28 05:41:00,22.6,20.4,29.92,SSE,150,0.0,0.0,91,0.00,,,0.00,Wunderground v.1.15,2013-01-28 13:41:00,
2013-01-28 05:46:00,22.3,20.1,29.92,SSE,149,0.0,0.0,91,0.00,,,0.00,Wunderground v.1.15,2013-01-28 13:46:00,
2013-01-28 05:51:00,22.1,19.9,29.92,SSE,149,0.0,0.0,91,0.00,,,0.00,Wunderground v.1.15,2013-01-28 13:51:00,
2013-01-28 05:56:00,21.9,19.7,29.92,SSE,150,0.0,0.0,91,0.00,,,0.00,Wunderground v.1.15,2013-01-28 13:56:00,
2013-01-28 06:01:00,21.7,19.5,29.92,SSE,150,0.0,4.0,91,0.00,,,0.00,Wunderground v.1.15,2013-01-28 14:01:00,
2013-01-28 06:06:00,21.6,19.6,29.92,SSE,149,0.0,4.0,92,0.00,,,0.00,Wunderground v.1.15,2013-01-28 14:06:00,
2013-01-28 06:11:00,21.6,19.6,29.92,SSE,150,0.0,0.0,92,0.00,,,0.00,Wunderground v.1.15,2013-01-28 14:11:00,
2013-01-28 06:21:00,21.8,19.8,29.92,SSE,150,0.0,0.0,92,0.00,,,0.00,Wunderground v.1.15,2013-01-28 14:21:00,
2013-01-28 06:26:00,21.9,19.9,29.92,SSE,150,0.0,0.0,92,0.00,,,0.00,Wunderground v.1.15,2013-01-28 14:26:00,
2013-01-28 06:36:00,21.8,19.8,29.92,SSE,149,0.0,0.0,92,0.00,,,0.00,Wunderground v.1.15,2013-01-28 14:36:00,
2013-01-28 06:41:00,21.8,19.8,29.92,SSE,150,0.0,0.0,92,0.00,,,0.00,Wunderground v.1.15,2013-01-28 14:41:00,
2013-01-28 06:46:00,21.7,19.7,29.92,SSE,150,0.0,0.0,92,0.00,,,0.00,Wunderground v.1.15,2013-01-28 14:46:00,
2013-01-28 06:51:00,21.6,19.6,29.92,SSE,150,0.0,0.0,92,0.00,,,0.00,Wunderground v.1.15,2013-01-28 14:51:00,
2013-01-28 06:56:00,21.6,19.9,29.92,SSE,149,0.0,0.0,93,0.00,,,0.00,Wunderground v.1.15,2013-01-28 14:56:00,
2013-01-28 07:01:00,21.7,20.0,29.92,SSE,150,0.0,1.0,93,0.00,,,0.00,Wunderground v.1.15,2013-01-28 15:01:00,
2013-01-28 07:11:00,22.1,20.4,29.92,SE,135,0.0,0.0,93,0.00,,,0.00,Wunderground v.1.15,2013-01-28 15:11:00,
2013-01-28 07:16:00,22.2,20.5,29.92,SE,135,0.0,0.0,93,0.00,,,0.00,Wunderground v.1.15,2013-01-28 15:16:00,
2013-01-28 07:21:00,22.3,20.6,29.92,SE,135,0.0,0.0,93,0.00,,,0.00,Wunderground v.1.15,2013-01-28 15:21:00,
2013-01-28 07:26:00,22.4,20.7,29.92,SE,135,0.0,0.0,93,0.00,,,0.00,Wunderground v.1.15,2013-01-28 15:26:00,
2013-01-28 07:31:00,22.5,20.8,29.92,ESE,109,1.0,3.0,93,0.00,,,0.00,Wunderground v.1.15,2013-01-28 15:31:00,
2013-01-28 07:36:00,22.9,21.2,29.92,ESE,103,1.0,3.0,93,0.00,,,0.00,Wunderground v.1.15,2013-01-28 15:36:00,
2013-01-28 07:41:00,23.1,21.4,29.92,ESE,103,1.0,1.0,93,0.00,,,0.00,Wunderground v.1.15,2013-01-28 15:41:00,
2013-01-28 07:46:00,23.3,21.6,29.92,ESE,103,1.0,1.0,93,0.00,,,0.00,Wunderground v.1.15,2013-01-28 15:46:00,
2013-01-28 07:51:00,23.5,21.8,29.92,ESE,104,0.0,0.0,93,0.00,,,0.00,Wunderground v.1.15,2013-01-28 15:51:00,
2013-01-28 07:56:00,23.6,21.9,29.92,ESE,103,0.0,0.0,93,0.00,,,0.00,Wunderground v.1.15,2013-01-28 15:56:00,
2013-01-28 08:01:00,23.8,22.1,29.92,ESE,103,0.0,0.0,93,0.00,,,0.00,Wunderground v.1.15,2013-01-28 16:01:00,
2013-01-28 08:11:00,24.2,22.0,29.92,WNW,291,1.0,1.0,91,0.00,,,0.00,Wunderground v.1.15,2013-01-28 16:11:00,
2013-01-28 08:16:00,24.5,21.7,29.92,WSW,252,1.0,1.0,89,0.00,,,0.00,Wunderground v.1.15,2013-01-28 16:16:00,
2013-01-28 08:21:00,24.8,21.5,29.92,ESE,111,1.0,1.0,87,0.00,,,0.00,Wunderground v.1.15,2013-01-28 16:21:00,
2013-01-28 08:26:00,25.2,21.9,29.92,SE,137,0.0,4.0,87,0.00,,,0.00,Wunderground v.1.15,2013-01-28 16:26:00,
2013-01-28 08:36:00,25.7,21.8,29.92,SE,128,1.0,1.0,85,0.00,,,0.00,Wunderground v.1.15,2013-01-28 16:36:00,
2013-01-28 08:41:00,26.0,22.1,29.92,SE,128,0.0,2.0,85,0.00,,,0.00,Wunderground v.1.15,2013-01-28 16:41:00,
2013-01-28 08:46:00,26.2,22.0,29.92,SE,128,0.0,2.0,84,0.00,,,0.00,Wunderground v.1.15,2013-01-28 16:46:00,
2013-01-28 08:51:00,26.2,21.7,29.92,ESE,113,1.0,1.0,83,0.00,,,0.00,Wunderground v.1.15,2013-01-28 16:51:00,
2013-01-28 08:56:00,26.2,21.7,29.92,ESE,113,1.0,1.0,83,0.00,,,0.00,Wunderground v.1.15,2013-01-28 16:56:00,
2013-01-28 11:41:00,29.3,22.7,29.92,SSE,161,0.0,0.0,76,0.00,,,0.00,Wunderground v.1.15,2013-01-28 19:41:00,
2013-01-28 11:46:00,29.4,21.8,29.92,SSE,161,0.0,0.0,73,0.00,,,0.00,Wunderground v.1.15,2013-01-28 19:46:00,
2013-01-28 11:51:00,29.4,21.8,29.92,SSE,161,0.0,0.0,73,0.00,,,0.00,Wunderground v.1.15,2013-01-28 19:51:00,
2013-01-28 11:56:00,29.6,22.6,29.92,SSE,160,0.0,1.0,75,0.00,,,0.00,Wunderground v.1.15,2013-01-28 19:56:00,
2013-01-28 12:01:00,30.3,22.7,29.92,West,263,1.0,2.0,73,0.00,,,0.00,Wunderground v.1.15,2013-01-28 20:01:00,
2013-01-28 12:06:00,30.8,21.1,29.92,WSW,258,1.0,2.0,67,0.00,,,0.00,Wunderground v.1.15,2013-01-28 20:06:00,
2013-01-28 12:11:00,31.0,21.3,29.92,West,260,0.0,0.0,67,0.00,,,0.00,Wunderground v.1.15,2013-01-28 20:11:00,
2013-01-28 12:16:00,31.0,21.0,29.92,West,260,0.0,0.0,66,0.00,,,0.00,Wunderground v.1.15,2013-01-28 20:16:00,
2013-01-28 12:26:00,30.5,20.8,29.92,SSE,150,1.0,3.0,67,0.00,,,0.00,Wunderground v.1.15,2013-01-28 20:26:00,
2013-01-28 12:31:00,30.3,21.7,29.92,SSE,150,1.0,1.0,70,0.00,,,0.00,Wunderground v.1.15,2013-01-28 20:31:00,
2013-01-28 12:36:00,30.1,21.2,29.92,SSE,150,1.0,2.0,69,0.00,,,0.00,Wunderground v.1.15,2013-01-28 20:36:00,
2013-01-28 12:41:00,29.9,21.3,29.92,South,179,2.0,2.0,70,0.00,,,0.00,Wunderground v.1.15,2013-01-28 20:41:00,
2013-01-28 12:46:00,29.8,22.5,29.92,South,176,2.0,2.0,74,0.00,,,0.00,Wunderground v.1.15,2013-01-28 20:46:00,
2013-01-28 12:51:00,29.6,23.0,29.92,South,178,2.0,2.0,76,0.00,,,0.00,Wunderground v.1.15,2013-01-28 20:51:00,
2013-01-28 12:56:00,29.9,22.6,29.92,South,180,1.0,2.0,74,0.00,,,0.00,Wunderground v.1.15,2013-01-28 20:56:00,
2013-01-28 13:01:00,30.6,22.3,29.92,WSW,254,1.0,1.0,71,0.00,,,0.00,Wunderground v.1.15,2013-01-28 21:01:00,
2013-01-28 13:06:00,31.2,22.5,29.92,West,271,1.0,1.0,70,0.00,,,0.00,Wunderground v.1.15,2013-01-28 21:06:00,
2013-01-28 13:11:00,31.9,22.5,29.92,WSW,244,1.0,1.0,68,0.00,,,0.00,Wunderground v.1.15,2013-01-28 21:11:00,
2013-01-28 13:21:00,32.3,22.2,29.92,SE,140,0.0,0.0,66,0.00,,,0.00,Wunderground v.1.15,2013-01-28 21:21:00,
2013-01-28 13:26:00,32.8,22.7,29.92,West,261,1.0,1.0,66,0.00,,,0.00,Wunderground v.1.15,2013-01-28 21:26:00,
2013-01-28 13:31:00,33.6,23.8,29.92,West,261,1.0,1.0,67,0.00,,,0.00,Wunderground v.1.15,2013-01-28 21:31:00,
2013-01-28 13:36:00,34.6,23.3,29.92,South,183,1.0,1.0,63,0.00,,,0.00,Wunderground v.1.15,2013-01-28 21:36:00,
2013-01-28 13:41:00,35.5,23.8,29.92,South,174,1.0,1.0,62,0.00,,,0.00,Wunderground v.1.15,2013-01-28 21:41:00,
2013-01-28 13:46:00,35.8,23.3,29.92,South,185,1.0,1.0,60,0.00,,,0.00,Wunderground v.1.15,2013-01-28 21:46:00,
2013-01-28 13:51:00,35.0,24.0,29.92,NNE,23,1.0,1.0,64,0.00,,,0.00,Wunderground v.1.15,2013-01-28 21:51:00,
2013-01-28 13:56:00,34.4,23.8,29.92,WSW,248,1.0,2.0,65,0.00,,,0.00,Wunderground v.1.15,2013-01-28 21:56:00,
2013-01-28 14:01:00,35.0,24.4,29.92,SSW,210,1.0,1.0,65,0.00,,,0.00,Wunderground v.1.15,2013-01-28 22:01:00,
2013-01-28 14:06:00,35.5,24.1,29.92,South,173,1.0,1.0,63,0.00,,,0.00,Wunderground v.1.15,2013-01-28 22:06:00,
2013-01-28 14:11:00,35.6,23.9,29.92,WSW,250,1.0,1.0,62,0.00,,,0.01,Wunderground v.1.15,2013-01-28 22:11:00,
2013-01-28 14:16:00,35.7,23.9,29.92,WSW,252,1.0,3.0,62,0.13,,,0.02,Wunderground v.1.15,2013-01-28 22:16:00,
2013-01-28 14:21:00,35.0,23.3,29.92,ESE,115,1.0,5.0,62,0.09,,,0.03,Wunderground v.1.15,2013-01-28 22:21:00,
2013-01-28 14:31:00,33.5,23.0,29.92,SE,129,1.0,1.0,65,0.07,,,0.04,Wunderground v.1.15,2013-01-28 22:31:00,
2013-01-28 14:36:00,33.2,23.1,29.92,SE,129,0.0,1.0,66,0.07,,,0.04,Wunderground v.1.15,2013-01-28 22:36:00,
2013-01-28 14:41:00,32.6,22.8,29.92,SSE,155,0.0,0.0,67,0.06,,,0.05,Wunderground v.1.15,2013-01-28 22:41:00,
2013-01-28 14:46:00,32.6,22.8,29.92,NE,34,1.0,1.0,67,0.06,,,0.05,Wunderground v.1.15,2013-01-28 22:46:00,
2013-01-28 14:51:00,33.2,23.8,29.92,NE,34,1.0,1.0,68,0.05,,,0.06,Wunderground v.1.15,2013-01-28 22:51:00,
2013-01-28 14:56:00,33.7,22.8,29.92,South,174,0.0,3.0,64,0.05,,,0.06,Wunderground v.1.15,2013-01-28 22:56:00,
2013-01-28 15:01:00,33.3,22.1,29.92,West,281,1.0,1.0,63,0.05,,,0.06,Wunderground v.1.15,2013-01-28 23:01:00,
2013-01-28 15:11:00,31.7,21.6,29.92,WSW,251,0.0,0.0,66,0.05,,,0.07,Wunderground v.1.15,2013-01-28 23:11:00,
2013-01-28 15:16:00,31.1,22.1,29.92,ENE,64,1.0,1.0,69,0.05,,,0.07,Wunderground v.1.15,2013-01-28 23:16:00,
2013-01-28 15:21:00,30.9,22.3,29.92,ENE,57,1.0,1.0,70,0.00,,,0.07,Wunderground v.1.15,2013-01-28 23:21:00,
2013-01-28 15:26:00,30.9,21.6,29.92,ESE,112,1.0,5.0,68,0.00,,,0.07,Wunderground v.1.15,2013-01-28 23:26:00,
2013-01-28 15:31:00,31.2,21.9,29.92,ESE,106,1.0,1.0,68,0.00,,,0.08,Wunderground v.1.15,2013-01-28 23:31:00,
2013-01-28 15:41:00,31.9,21.5,29.92,South,172,2.0,2.0,65,0.00,,,0.08,Wunderground v.1.15,2013-01-28 23:41:00,
2013-01-28 15:46:00,31.9,21.5,29.92,SSE,148,1.0,2.0,65,0.00,,,0.08,Wunderground v.1.15,2013-01-28 23:46:00,
2013-01-28 15:56:00,31.1,21.4,29.92,SE,136,2.0,3.0,67,0.00,,,0.08,Wunderground v.1.15,2013-01-28 23:56:00,
2013-01-28 16:01:00,30.6,20.9,29.92,South,175,2.0,2.0,67,0.00,,,0.08,Wunderground v.1.15,2013-01-29 00:01:00,
2013-01-28 16:11:00,29.9,19.6,29.92,ESE,110,2.0,2.0,65,0.00,,,0.09,Wunderground v.1.15,2013-01-29 00:11:00,
2013-01-28 16:16:00,29.9,20.3,29.92,ESE,115,0.0,2.0,67,0.00,,,0.09,Wunderground v.1.15,2013-01-29 00:16:00,
2013-01-28 16:21:00,29.9,20.6,29.92,ESE,123,0.0,3.0,68,0.00,,,0.09,Wunderground v.1.15,2013-01-29 00:21:00,
2013-01-28 16:26:00,29.8,20.5,29.92,ESE,108,1.0,3.0,68,0.00,,,0.09,Wunderground v.1.15,2013-01-29 00:26:00,
2013-01-28 16:31:00,29.8,20.9,29.92,SE,140,1.0,1.0,69,0.00,,,0.09,Wunderground v.1.15,2013-01-29 00:31:00,
2013-01-28 16:36:00,29.6,20.3,29.92,ESE,104,1.0,1.0,68,0.00,,,0.09,Wunderground v.1.15,2013-01-29 00:36:00,
2013-01-28 16:41:00,29.5,20.6,29.92,NE,52,0.0,0.0,69,0.00,,,0.09,Wunderground v.1.15,2013-01-29 00:41:00,
2013-01-28 16:46:00,29.5,20.6,29.92,NE,54,0.0,0.0,69,0.00,,,0.09,Wunderground v.1.15,2013-01-29 00:46:00,
2013-01-28 16:51:00,29.2,20.3,29.92,NE,53,0.0,0.0,69,0.00,,,0.09,Wunderground v.1.15,2013-01-29 00:51:00,
2013-01-28 16:56:00,29.1,20.9,29.92,NE,54,0.0,0.0,71,0.00,,,0.09,Wunderground v.1.15,2013-01-29 00:56:00,
2013-01-28 17:01:00,28.9,20.7,29.92,NE,53,0.0,11.0,71,0.00,,,0.09,Wunderground v.1.15,2013-01-29 01:01:00,
2013-01-28 17:06:00,28.8,20.6,29.92,NE,54,0.0,11.0,71,0.00,,,0.09,Wunderground v.1.15,2013-01-29 01:06:00,
2013-01-28 17:11:00,28.7,20.1,29.92,NE,54,0.0,0.0,70,0.00,,,0.09,Wunderground v.1.15,2013-01-29 01:11:00,
2013-01-28 17:16:00,28.5,20.0,29.92,NE,54,0.0,0.0,70,0.00,,,0.09,Wunderground v.1.15,2013-01-29 01:16:00,
2013-01-28 17:21:00,28.3,20.4,29.92,NE,53,0.0,0.0,72,0.00,,,0.09,Wunderground v.1.15,2013-01-29 01:21:00,
2013-01-28 17:26:00,28.1,20.6,29.92,NE,54,0.0,0.0,73,0.00,,,0.09,Wunderground v.1.15,2013-01-29 01:26:00,
2013-01-28 17:31:00,28.0,20.5,29.92,NE,54,0.0,0.0,73,0.00,,,0.09,Wunderground v.1.15,2013-01-29 01:31:00,
2013-01-28 17:36:00,27.8,20.3,29.92,NE,55,0.0,0.0,73,0.00,,,0.09,Wunderground v.1.15,2013-01-29 01:36:00,
2013-01-28 17:41:00,27.6,20.7,29.92,NE,55,0.0,0.0,75,0.00,,,0.09,Wunderground v.1.15,2013-01-29 01:41:00,
2013-01-28 17:46:00,27.4,20.2,29.92,NE,55,0.0,0.0,74,0.00,,,0.09,Wunderground v.1.15,2013-01-29 01:46:00,
2013-01-28 17:51:00,27.2,20.3,29.92,NE,55,0.0,0.0,75,0.00,,,0.09,Wunderground v.1.15,2013-01-29 01:51:00,
2013-01-28 17:56:00,27.1,19.9,29.92,NE,55,0.0,0.0,74,0.00,,,0.09,Wunderground v.1.15,2013-01-29 01:56:00,
2013-01-28 18:01:00,26.9,19.4,29.92,NE,55,0.0,5.0,73,0.00,,,0.09,Wunderground v.1.15,2013-01-29 02:01:00,
2013-01-28 18:06:00,26.8,19.3,29.92,NE,55,0.0,5.0,73,0.00,,,0.09,Wunderground v.1.15,2013-01-29 02:06:00,
2013-01-28 18:11:00,26.7,20.1,29.92,NE,55,0.0,1.0,76,0.00,,,0.09,Wunderground v.1.15,2013-01-29 02:11:00,
2013-01-28 18:16:00,26.7,20.5,29.92,NE,55,0.0,1.0,77,0.00,,,0.09,Wunderground v.1.15,2013-01-29 02:16:00,
2013-01-28 18:21:00,26.6,20.4,29.92,NE,55,0.0,0.0,77,0.00,,,0.09,Wunderground v.1.15,2013-01-29 02:21:00,
2013-01-28 18:26:00,26.4,19.9,29.92,North,355,0.0,0.0,76,0.00,,,0.09,Wunderground v.1.15,2013-01-29 02:26:00,
2013-01-28 18:31:00,26.3,19.8,29.92,North,355,0.0,0.0,76,0.00,,,0.09,Wunderground v.1.15,2013-01-29 02:31:00,
2013-01-28 18:36:00,26.2,20.3,29.92,North,355,0.0,0.0,78,0.00,,,0.09,Wunderground v.1.15,2013-01-29 02:36:00,
2013-01-28 18:46:00,25.9,20.6,29.92,North,355,0.0,0.0,80,0.00,,,0.09,Wunderground v.1.15,2013-01-29 02:46:00,
2013-01-28 18:51:00,25.7,20.4,29.92,North,355,0.0,0.0,80,0.00,,,0.09,Wunderground v.1.15,2013-01-29 02:51:00,
2013-01-28 18:56:00,25.5,20.2,29.92,North,355,0.0,0.0,80,0.00,,,0.09,Wunderground v.1.15,2013-01-29 02:56:00,
2013-01-28 19:01:00,25.3,20.0,29.92,North,355,0.0,3.0,80,0.00,,,0.09,Wunderground v.1.15,2013-01-29 03:01:00,
2013-01-28 19:31:00,25.1,19.2,29.92,North,355,0.0,0.0,78,0.00,,,0.09,Wunderground v.1.15,2013-01-29 03:31:00,
2013-01-28 19:41:00,24.7,19.1,29.92,North,355,0.0,0.0,79,0.00,,,0.09,Wunderground v.1.15,2013-01-29 03:41:00,
2013-01-28 19:46:00,24.4,19.1,29.92,North,355,0.0,0.0,80,0.00,,,0.09,Wunderground v.1.15,2013-01-29 03:46:00,
2013-01-28 19:51:00,24.2,18.9,29.92,North,355,0.0,0.0,80,0.00,,,0.09,Wunderground v.1.15,2013-01-29 03:51:00,
2013-01-28 20:01:00,23.5,18.2,29.92,North,355,0.0,1.0,80,0.00,,,0.09,Wunderground v.1.15,2013-01-29 04:01:00,
2013-01-28 20:06:00,23.2,17.9,29.92,North,355,0.0,1.0,80,0.00,,,0.09,Wunderground v.1.15,2013-01-29 04:06:00,
2013-01-28 20:11:00,22.9,17.4,29.92,North,355,0.0,0.0,79,0.00,,,0.09,Wunderground v.1.15,2013-01-29 04:11:00,
2013-01-28 20:16:00,22.7,17.2,29.92,North,355,0.0,0.0,79,0.00,,,0.09,Wunderground v.1.15,2013-01-29 04:16:00,
2013-01-28 20:21:00,22.8,17.3,29.92,NE,45,0.0,0.0,79,0.00,,,0.09,Wunderground v.1.15,2013-01-29 04:21:00,
2013-01-28 20:26:00,23.0,17.5,29.92,NE,46,0.0,0.0,79,0.00,,,0.09,Wunderground v.1.15,2013-01-29 04:26:00,
2013-01-28 20:31:00,23.4,17.6,29.92,NE,46,0.0,0.0,78,0.00,,,0.09,Wunderground v.1.15,2013-01-29 04:31:00,
2013-01-28 20:41:00,23.8,17.6,29.92,NE,46,0.0,0.0,77,0.00,,,0.09,Wunderground v.1.15,2013-01-29 04:41:00,
2013-01-28 20:46:00,23.9,18.0,29.92,NE,46,0.0,0.0,78,0.00,,,0.09,Wunderground v.1.15,2013-01-29 04:46:00,
2013-01-28 20:51:00,23.9,18.3,29.92,NE,46,0.0,2.0,79,0.00,,,0.09,Wunderground v.1.15,2013-01-29 04:51:00,
2013-01-28 20:56:00,23.9,17.7,29.92,ESE,110,0.0,2.0,77,0.00,,,0.09,Wunderground v.1.15,2013-01-29 04:56:00,
2013-01-28 21:06:00,23.9,18.3,29.92,ESE,110,0.0,2.0,79,0.00,,,0.09,Wunderground v.1.15,2013-01-29 05:06:00,
2013-01-28 21:11:00,23.6,17.7,29.92,ESE,110,0.0,0.0,78,0.00,,,0.09,Wunderground v.1.15,2013-01-29 05:11:00,
2013-01-28 21:16:00,23.4,18.1,29.92,ESE,110,0.0,0.0,80,0.00,,,0.09,Wunderground v.1.15,2013-01-29 05:16:00,
2013-01-28 21:21:00,23.1,17.8,29.92,ESE,110,0.0,0.0,80,0.00,,,0.09,Wunderground v.1.15,2013-01-29 05:21:00,
2013-01-28 21:26:00,22.9,17.9,29.92,ESE,110,0.0,0.0,81,0.00,,,0.09,Wunderground v.1.15,2013-01-29 05:26:00,
2013-01-28 21:31:00,22.5,17.5,29.92,ESE,110,0.0,0.0,81,0.00,,,0.09,Wunderground v.1.15,2013-01-29 05:31:00,
2013-01-28 21:36:00,22.3,17.6,29.92,ESE,110,0.0,0.0,82,0.00,,,0.09,Wunderground v.1.15,2013-01-29 05:36:00,
2013-01-28 21:41:00,22.1,17.2,29.92,ESE,110,0.0,0.0,81,0.00,,,0.09,Wunderground v.1.15,2013-01-29 05:41:00,
2013-01-28 21:46:00,21.9,17.2,29.92,ESE,110,0.0,0.0,82,0.00,,,0.09,Wunderground v.1.15,2013-01-29 05:46:00,
2013-01-28 21:51:00,21.8,17.4,29.92,ESE,110,0.0,1.0,83,0.00,,,0.09,Wunderground v.1.15,2013-01-29 05:51:00,
2013-01-28 22:01:00,21.4,17.0,29.92,ESE,110,0.0,4.0,83,0.00,,,0.09,Wunderground v.1.15,2013-01-29 06:01:00,
2013-01-28 22:11:00,21.2,17.1,29.92,ESE,110,0.0,0.0,84,0.00,,,0.09,Wunderground v.1.15,2013-01-29 06:11:00,
2013-01-28 22:16:00,21.0,16.9,29.92,ESE,110,1.0,1.0,84,0.00,,,0.09,Wunderground v.1.15,2013-01-29 06:16:00,
2013-01-28 22:21:00,21.0,16.9,29.92,ESE,110,0.0,0.0,84,0.00,,,0.09,Wunderground v.1.15,2013-01-29 06:21:00,
2013-01-28 22:26:00,20.9,17.1,29.92,ESE,110,0.0,0.0,85,0.00,,,0.09,Wunderground v.1.15,2013-01-29 06:26:00,
2013-01-28 22:31:00,20.9,17.1,29.92,ESE,110,0.0,0.0,85,0.00,,,0.09,Wunderground v.1.15,2013-01-29 06:31:00,
2013-01-28 22:36:00,20.8,17.3,29.92,ENE,63,0.0,4.0,86,0.00,,,0.09,Wunderground v.1.15,2013-01-29 06:36:00,
2013-01-28 22:41:00,20.8,17.3,29.92,ENE,63,0.0,0.0,86,0.00,,,0.09,Wunderground v.1.15,2013-01-29 06:41:00,
2013-01-28 22:46:00,20.7,17.2,29.92,ENE,63,0.0,0.0,86,0.00,,,0.09,Wunderground v.1.15,2013-01-29 06:46:00,
2013-01-28 22:51:00,20.8,17.3,29.92,ENE,63,0.0,0.0,86,0.00,,,0.09,Wunderground v.1.15,2013-01-29 06:51:00,
2013-01-28 22:56:00,20.8,17.3,29.92,ENE,63,0.0,0.0,86,0.00,,,0.09,Wunderground v.1.15,2013-01-29 06:56:00,
2013-01-28 23:01:00,20.8,17.3,29.92,ENE,63,0.0,2.0,86,0.00,,,0.09,Wunderground v.1.15,2013-01-29 07:01:00,
2013-01-28 23:06:00,20.8,17.3,29.92,ENE,63,0.0,2.0,86,0.00,,,0.09,Wunderground v.1.15,2013-01-29 07:06:00,
2013-01-28 23:11:00,20.8,17.0,29.92,ENE,63,0.0,0.0,85,0.00,,,0.09,Wunderground v.1.15,2013-01-29 07:11:00,
2013-01-28 23:16:00,20.8,17.0,29.92,ENE,63,0.0,0.0,85,0.00,,,0.09,Wunderground v.1.15,2013-01-29 07:16:00,
2013-01-28 23:21:00,20.8,17.0,29.92,ENE,63,0.0,0.0,85,0.00,,,0.09,Wunderground v.1.15,2013-01-29 07:21:00,
2013-01-28 23:26:00,20.9,16.8,29.92,ENE,63,0.0,1.0,84,0.00,,,0.09,Wunderground v.1.15,2013-01-29 07:26:00,
2013-01-28 23:31:00,21.1,17.0,29.92,NNE,27,0.0,0.0,84,0.00,,,0.09,Wunderground v.1.15,2013-01-29 07:31:00,
2013-01-28 23:36:00,21.3,17.2,29.92,NNE,28,0.0,0.0,84,0.00,,,0.09,Wunderground v.1.15,2013-01-29 07:36:00,
2013-01-28 23:41:00,21.5,17.4,29.92,NNE,28,0.0,1.0,84,0.00,,,0.09,Wunderground v.1.15,2013-01-29 07:41:00,
2013-01-28 23:46:00,21.7,17.6,29.92,NNE,28,0.0,1.0,84,0.00,,,0.09,Wunderground v.1.15,2013-01-29 07:46:00,
2013-01-28 23:51:00,21.8,17.4,29.92,NNE,30,0.0,0.0,83,0.00,,,0.09,Wunderground v.1.15,2013-01-29 07:51:00,